Time;durP1;ratioP1;P1;durP2;ratioP2;P2;SDS_P1;SDS_P2;PMS_P1;PMS_P2;Temp;Humidity;BMP_temperature;BMP_pressure;BME280_temperature;BME280_humidity;BME280_pressure;Samples;Min_cycle;Max_cycle;Signal;HPM_P1;HPM_P2
2024/03/15 00:00:41;;;;;;;1.85;1.30;;;;;;;8.96;60.07;92552.88;2071918;69;20167;-77
2024/03/15 00:03:07;;;;;;;2.13;1.15;;;;;;;8.97;60.10;92546.66;2071911;69;20152;-75
2024/03/15 00:05:32;;;;;;;1.63;1.00;;;;;;;8.87;59.98;92534.78;2072003;69;20247;-76
2024/03/15 00:07:58;;;;;;;1.67;0.93;;;;;;;9.05;58.79;92549.97;2068980;69;20160;-77
2024/03/15 00:10:24;;;;;;;5.05;1.38;;;;;;;9.03;59.24;92540.72;2068653;69;20144;-75
2024/03/15 00:12:50;;;;;;;4.47;1.15;;;;;;;9.00;58.99;92548.25;2071620;69;20167;-75
2024/03/15 00:15:18;;;;;;;2.60;1.10;;;;;;;8.86;59.44;92542.47;2068594;69;20356;-75
2024/03/15 00:17:44;;;;;;;1.90;1.17;;;;;;;8.70;60.05;92543.47;2071768;69;20156;-74
2024/03/15 00:20:11;;;;;;;1.88;1.00;;;;;;;8.98;59.01;92547.38;2071801;69;20156;-75
2024/03/15 00:22:37;;;;;;;1.70;1.00;;;;;;;9.06;59.26;92547.91;2071785;69;20155;-76
2024/03/15 00:25:03;;;;;;;3.42;1.00;;;;;;;9.22;58.75;92545.41;2068336;69;20171;-75
2024/03/15 00:27:29;;;;;;;2.20;1.40;;;;;;;8.72;60.37;92552.06;2071896;69;20142;-75
2024/03/15 00:29:54;;;;;;;5.15;1.63;;;;;;;8.84;59.67;92544.41;2068556;69;20239;-75
2024/03/15 00:32:20;;;;;;;2.13;1.35;;;;;;;8.81;59.22;92540.75;2071680;69;20144;-74
2024/03/15 00:34:46;;;;;;;4.05;1.55;;;;;;;8.97;59.06;92543.13;2068449;69;20144;-75
2024/03/15 00:37:13;;;;;;;3.22;1.58;;;;;;;8.77;60.19;92539.75;2068411;69;20121;-75
2024/03/15 00:39:40;;;;;;;3.25;1.10;;;;;;;8.73;59.96;92543.03;2071901;69;20159;-75
2024/03/15 00:42:05;;;;;;;2.20;1.20;;;;;;;8.77;59.30;92536.94;2071718;69;20136;-74
2024/03/15 00:44:31;;;;;;;3.33;1.35;;;;;;;8.77;59.37;92545.34;2068578;69;20190;-75
2024/03/15 00:46:57;;;;;;;1.98;1.20;;;;;;;8.84;59.60;92541.59;2071538;69;20148;-74
2024/03/15 00:49:23;;;;;;;0.95;0.85;;;;;;;8.80;57.48;92532.94;2071668;69;20691;-76
2024/03/15 00:51:49;;;;;;;2.10;1.00;;;;;;;8.93;56.97;92526.00;2071725;69;20700;-75
2024/03/15 00:54:15;;;;;;;1.67;0.88;;;;;;;9.18;56.06;92525.50;2068370;69;20200;-74
2024/03/15 00:56:40;;;;;;;2.45;1.05;;;;;;;8.77;58.75;92522.91;2071749;69;20801;-77
2024/03/15 00:59:08;;;;;;;2.95;1.17;;;;;;;8.93;57.75;92520.38;2071643;69;20144;-75
2024/03/15 01:01:35;;;;;;;1.13;1.00;;;;;;;9.01;57.34;92520.91;2071590;69;20156;-75
2024/03/15 01:04:01;;;;;;;2.83;1.23;;;;;;;8.75;58.69;92517.91;2071522;69;20144;-77
2024/03/15 01:06:27;;;;;;;5.72;1.10;;;;;;;8.94;58.62;92514.19;2071368;69;20169;-76
2024/03/15 01:08:52;;;;;;;2.65;1.13;;;;;;;8.70;59.42;92518.22;2071590;69;20176;-74
2024/03/15 01:11:19;;;;;;;3.17;1.10;;;;;;;8.84;58.71;92519.13;2071555;69;20153;-75
2024/03/15 01:13:45;;;;;;;1.30;0.90;;;;;;;8.80;59.07;92519.63;2071444;69;20167;-75
2024/03/15 01:16:11;;;;;;;1.13;0.90;;;;;;;8.74;59.09;92508.00;2068002;69;20140;-76
2024/03/15 01:18:38;;;;;;;1.05;0.82;;;;;;;8.64;59.32;92524.19;2071402;69;20156;-75
2024/03/15 01:21:03;;;;;;;2.15;0.82;;;;;;;8.37;59.69;92510.50;2071499;69;20140;-77
2024/03/15 01:23:29;;;;;;;1.38;0.90;;;;;;;8.58;59.75;92518.91;2071404;69;20132;-76
2024/03/15 01:25:57;;;;;;;1.67;0.95;;;;;;;8.57;60.45;92511.84;2071375;69;20152;-76
2024/03/15 01:28:22;;;;;;;2.60;1.00;;;;;;;8.32;60.87;92517.16;2068034;69;20172;-76
2024/03/15 01:34:35;;;;;;;2.25;1.10;;;;;;;8.36;59.66;92504.16;2071559;69;20216;-75
2024/03/15 01:37:01;;;;;;;2.55;1.10;;;;;;;8.20;60.95;92510.75;2071394;69;20177;-75
2024/03/15 01:39:26;;;;;;;3.22;1.10;;;;;;;8.28;60.07;92505.69;2068133;69;20148;-76
2024/03/15 01:41:52;;;;;;;1.77;1.10;;;;;;;8.27;60.35;92510.56;2071192;69;20171;-76
2024/03/15 01:44:17;;;;;;;1.55;0.90;;;;;;;8.27;59.75;92507.03;2068135;69;20481;-76
2024/03/15 01:46:44;;;;;;;2.22;0.95;;;;;;;8.27;60.16;92512.63;2071407;69;20187;-76
2024/03/15 01:49:10;;;;;;;1.63;0.93;;;;;;;8.14;60.59;92497.06;2065388;69;20227;-76
2024/03/15 01:51:36;;;;;;;1.77;1.05;;;;;;;7.96;61.92;92507.06;2071403;69;20144;-78
2024/03/15 01:54:02;;;;;;;3.22;1.08;;;;;;;8.03;61.19;92509.69;2071530;69;20161;-78
2024/03/15 01:56:28;;;;;;;1.73;1.00;;;;;;;8.12;60.86;92510.97;2071367;69;20189;-77
2024/03/15 01:58:54;;;;;;;2.75;1.10;;;;;;;7.96;60.52;92507.06;2073134;69;20140;-74
2024/03/15 02:01:19;;;;;;;1.30;1.00;;;;;;;8.00;60.79;92512.94;2071845;69;20136;-76
2024/03/15 02:03:46;;;;;;;1.27;0.85;;;;;;;7.94;61.34;92516.06;2068205;69;20156;-76
2024/03/15 02:09:58;;;;;;;5.68;2.05;;;;;;;7.66;61.34;92500.88;2071285;69;20139;-75
2024/03/15 02:12:25;;;;;;;12.38;3.90;;;;;;;7.71;61.60;92513.84;2071199;69;20148;-74
2024/03/15 02:14:51;;;;;;;5.40;2.47;;;;;;;7.64;62.57;92521.06;2071419;69;20236;-73
2024/03/15 02:17:17;;;;;;;6.85;2.83;;;;;;;7.62;62.30;92517.41;2071479;69;20231;-74
2024/03/15 02:23:31;;;;;;;7.13;2.15;;;;;;;7.53;62.09;92518.19;2071665;69;20119;-75
2024/03/15 02:25:57;;;;;;;4.47;2.03;;;;;;;7.54;63.03;92523.19;2068051;69;20526;-74
2024/03/15 02:28:22;;;;;;;7.45;2.25;;;;;;;7.48;62.19;92527.66;2071473;69;20156;-75
2024/03/15 02:30:48;;;;;;;4.05;1.75;;;;;;;7.38;62.98;92528.41;2071600;69;20160;-75
2024/03/15 02:33:15;;;;;;;3.80;1.83;;;;;;;7.13;63.35;92530.84;2071516;69;20152;-75
2024/03/15 02:35:41;;;;;;;4.25;1.88;;;;;;;7.31;63.45;92536.97;2065340;69;20136;-75
2024/03/15 02:38:07;;;;;;;6.80;2.10;;;;;;;7.38;63.03;92524.88;2071543;69;20140;-75
2024/03/15 02:40:33;;;;;;;6.88;2.47;;;;;;;6.86;63.96;92525.44;2071402;69;20734;-74
2024/03/15 02:42:58;;;;;;;4.90;1.95;;;;;;;7.17;64.13;92544.38;2071128;69;20652;-74
2024/03/15 02:45:25;;;;;;;7.53;1.83;;;;;;;7.29;63.10;92534.78;2071440;69;20156;-75
2024/03/15 02:47:50;;;;;;;3.47;1.65;;;;;;;7.07;63.44;92541.63;2071287;69;20203;-76
2024/03/15 02:50:17;;;;;;;4.28;1.60;;;;;;;7.02;63.83;92542.66;2071434;69;20136;-74
2024/03/15 02:52:43;;;;;;;3.40;1.63;;;;;;;7.11;63.99;92539.09;2071497;69;20194;-74
2024/03/15 02:55:10;;;;;;;4.30;1.60;;;;;;;7.30;63.04;92543.91;2071272;69;20143;-74
2024/03/15 02:57:36;;;;;;;2.53;1.30;;;;;;;6.93;65.05;92540.59;2067825;69;20583;-75
2024/03/15 03:00:02;;;;;;;4.63;1.40;;;;;;;7.15;64.10;92553.38;2071348;69;20532;-74
2024/03/15 03:06:14;;;;;;;3.65;1.50;;;;;;;7.12;63.84;92554.56;2071352;69;20239;-74
2024/03/15 03:08:40;;;;;;;2.05;1.20;;;;;;;7.16;63.38;92560.44;2067954;69;20200;-75
2024/03/15 03:11:06;;;;;;;3.40;1.40;;;;;;;7.03;63.75;92555.31;2071407;69;20148;-75
2024/03/15 03:13:36;;;;;;;3.42;1.20;;;;;;;6.72;64.61;92560.78;2071380;69;20586;-75
2024/03/15 03:16:02;;;;;;;3.80;1.33;;;;;;;6.85;65.37;92566.66;2071538;69;20625;-74
2024/03/15 03:18:28;;;;;;;7.15;1.63;;;;;;;6.98;64.66;92561.97;2071240;69;20574;-75
2024/03/15 03:20:57;;;;;;;2.28;1.10;;;;;;;6.97;64.34;92557.69;2071486;69;20180;-74
2024/03/15 03:23:23;;;;;;;1.23;1.00;;;;;;;6.94;64.38;92544.88;2071291;69;20144;-74
2024/03/15 03:25:49;;;;;;;1.30;0.70;;;;;;;7.17;62.89;92547.19;2068030;69;20505;-75
2024/03/15 03:28:15;;;;;;;1.88;0.60;;;;;;;7.24;63.23;92558.22;2071448;69;20158;-75
2024/03/15 03:30:41;;;;;;;1.15;0.70;;;;;;;7.37;62.33;92552.13;2071639;69;20610;-75
2024/03/15 03:33:07;;;;;;;1.90;0.70;;;;;;;7.42;62.42;92549.63;2071781;69;20535;-74
2024/03/15 03:35:33;;;;;;;2.00;0.80;;;;;;;7.43;62.24;92556.72;2071927;69;20167;-74
2024/03/15 03:38:00;;;;;;;1.52;0.85;;;;;;;7.15;63.08;92561.78;2068500;69;20740;-75
2024/03/15 03:40:26;;;;;;;2.60;1.00;;;;;;;7.20;62.22;92557.94;2071688;69;20148;-74
2024/03/15 03:42:52;;;;;;;3.17;0.95;;;;;;;7.22;61.83;92569.28;2068579;69;20148;-74
2024/03/15 03:45:19;;;;;;;1.40;0.90;;;;;;;7.22;61.64;92566.47;2071903;69;20160;-74
2024/03/15 03:47:49;;;;;;;1.20;0.85;;;;;;;7.22;61.29;92565.75;2068610;69;20616;-76
2024/03/15 03:50:17;;;;;;;1.45;0.85;;;;;;;7.34;61.67;92572.22;2071813;69;20140;-74
2024/03/15 03:52:44;;;;;;;1.25;0.80;;;;;;;7.34;61.52;92553.34;2071867;69;20176;-75
2024/03/15 03:55:10;;;;;;;2.85;0.93;;;;;;;7.44;60.65;92560.97;2071800;69;20151;-74
2024/03/15 03:57:37;;;;;;;1.95;0.90;;;;;;;7.54;60.29;92564.47;2071551;69;20217;-76
2024/03/15 04:00:06;;;;;;;2.95;1.95;;;;;;;7.38;60.45;92564.09;2071837;69;20179;-75
2024/03/15 04:02:37;;;;;;;3.50;1.67;;;;;;;7.42;60.29;92567.16;2071789;69;20604;-75
2024/03/15 04:05:03;;;;;;;3.20;1.00;;;;;;;7.38;60.81;92566.91;2071982;69;20203;-75
2024/03/15 04:07:31;;;;;;;1.50;0.95;;;;;;;7.53;60.33;92560.94;2072039;69;20224;-75
2024/03/15 04:09:57;;;;;;;1.20;0.70;;;;;;;7.42;61.65;92558.75;2071923;69;20144;-75
2024/03/15 04:12:26;;;;;;;0.90;0.77;;;;;;;7.43;61.64;92570.72;2071933;69;20242;-74
2024/03/15 04:14:55;;;;;;;1.10;0.80;;;;;;;7.35;61.46;92568.81;2072017;69;20176;-75
2024/03/15 04:17:20;;;;;;;0.98;0.80;;;;;;;7.23;61.84;92551.13;2071855;69;20155;-75
2024/03/15 04:19:47;;;;;;;1.88;0.90;;;;;;;7.36;61.30;92569.53;2071942;69;20144;-75
2024/03/15 04:22:13;;;;;;;2.20;0.90;;;;;;;7.47;60.92;92577.34;2071780;69;20156;-74
2024/03/15 04:24:39;;;;;;;1.42;1.08;;;;;;;7.33;61.13;92568.69;2072129;69;20492;-75
2024/03/15 04:27:08;;;;;;;4.38;1.20;;;;;;;7.33;60.70;92568.69;2072018;69;20176;-75
2024/03/15 04:29:35;;;;;;;1.80;0.80;;;;;;;7.44;60.96;92569.38;2071907;69;20156;-75
2024/03/15 04:32:02;;;;;;;7.45;3.65;;;;;;;7.13;61.91;92576.34;2071917;69;20597;-75
2024/03/15 04:34:28;;;;;;;6.22;2.72;;;;;;;7.33;61.17;92570.72;2071847;69;20523;-75
2024/03/15 04:36:54;;;;;;;3.08;2.10;;;;;;;7.31;61.50;92576.19;2071854;69;20551;-75
2024/03/15 04:39:19;;;;;;;7.50;2.85;;;;;;;7.30;60.93;92567.06;2071937;69;20148;-75
2024/03/15 04:41:45;;;;;;;3.63;2.03;;;;;;;7.33;62.23;92573.50;2071463;69;20609;-75
2024/03/15 04:44:11;;;;;;;2.30;1.58;;;;;;;7.39;61.31;92573.97;2071830;69;20144;-75
2024/03/15 04:46:38;;;;;;;5.03;1.30;;;;;;;7.37;61.46;92568.94;2071500;69;20150;-74
2024/03/15 04:49:04;;;;;;;4.25;1.40;;;;;;;7.50;60.92;92581.72;2071789;69;20144;-74
2024/03/15 04:51:30;;;;;;;6.63;4.32;;;;;;;7.24;61.67;92566.63;2071813;69;20522;-73
2024/03/15 04:53:55;;;;;;;6.53;2.40;;;;;;;7.26;61.82;92574.44;2071827;69;20152;-74
2024/03/15 04:56:21;;;;;;;6.55;3.17;;;;;;;7.35;61.63;92577.22;2071967;69;20145;-75
2024/03/15 04:58:47;;;;;;;3.67;2.50;;;;;;;7.36;61.42;92583.53;2071894;69;20129;-73
2024/03/15 05:01:13;;;;;;;4.35;1.95;;;;;;;7.27;61.22;92575.91;2071764;69;20156;-74
2024/03/15 05:03:38;;;;;;;2.85;2.00;;;;;;;7.25;62.24;92582.09;2071647;69;20147;-74
2024/03/15 05:06:04;;;;;;;1.98;1.50;;;;;;;7.31;62.12;92581.78;2071541;69;20635;-75
2024/03/15 05:08:31;;;;;;;2.38;1.73;;;;;;;6.42;65.42;92585.22;2071904;69;20155;-75
2024/03/15 05:10:56;;;;;;;3.92;1.80;;;;;;;6.92;63.78;92583.88;2068352;69;20147;-75
2024/03/15 05:13:22;;;;;;;3.22;1.90;;;;;;;7.09;62.35;92587.25;2071648;69;20170;-75
2024/03/15 05:15:49;;;;;;;5.15;1.77;;;;;;;7.15;62.76;92581.38;2071780;69;20570;-75
2024/03/15 05:18:15;;;;;;;8.32;2.80;;;;;;;7.13;62.36;92584.75;2071624;69;20208;-75
2024/03/15 05:20:41;;;;;;;4.25;1.80;;;;;;;7.20;63.41;92588.00;2068423;69;20148;-74
2024/03/15 05:23:08;;;;;;;5.05;1.80;;;;;;;7.28;62.68;92599.75;2071631;69;20148;-74
2024/03/15 05:25:34;;;;;;;4.70;2.13;;;;;;;7.25;62.61;92595.38;2071461;69;20176;-74
2024/03/15 05:28:00;;;;;;;7.90;3.05;;;;;;;6.99;63.58;92592.16;2071471;69;20217;-74
2024/03/15 05:30:27;;;;;;;6.22;3.53;;;;;;;7.04;63.73;92588.31;2071724;69;20676;-74
2024/03/15 05:36:41;;;;;;;4.75;2.40;;;;;;;7.18;63.45;92591.38;2071610;69;20159;-75
2024/03/15 05:39:10;;;;;;;6.55;2.78;;;;;;;6.94;63.89;92589.66;2071600;69;20596;-74
2024/03/15 05:41:38;;;;;;;5.45;3.50;;;;;;;7.21;63.31;92589.47;2068065;69;20144;-74
2024/03/15 05:44:04;;;;;;;15.95;6.28;;;;;;;6.83;65.33;92599.38;2071286;69;20601;-74
2024/03/15 05:46:31;;;;;;;11.40;5.55;;;;;;;7.07;64.40;92592.00;2068201;69;20242;-74
2024/03/15 05:48:57;;;;;;;10.57;4.80;;;;;;;7.17;64.33;92586.38;2071449;69;20144;-74
2024/03/15 05:51:23;;;;;;;7.93;4.30;;;;;;;7.10;64.96;92590.78;2071551;69;20619;-74
2024/03/15 05:53:48;;;;;;;9.48;4.53;;;;;;;7.23;63.58;92584.00;2071371;69;20657;-74
2024/03/15 05:56:15;;;;;;;3.08;2.00;;;;;;;7.25;61.93;92579.31;2071469;69;20167;-76
2024/03/15 05:58:41;;;;;;;2.95;1.70;;;;;;;7.29;61.34;92573.25;2071347;69;20222;-74
2024/03/15 06:01:07;;;;;;;17.00;6.55;;;;;;;7.37;61.39;92576.59;2071360;69;20178;-74
2024/03/15 06:03:32;;;;;;;4.50;1.77;;;;;;;7.53;61.04;92582.63;2071209;69;20576;-74
2024/03/15 06:05:58;;;;;;;3.25;1.60;;;;;;;7.64;60.19;92584.78;2070990;69;20652;-75
2024/03/15 06:08:26;;;;;;;19.55;9.30;;;;;;;7.70;60.71;92585.22;2071195;69;20144;-75
2024/03/15 06:10:53;;;;;;;10.57;4.13;;;;;;;7.43;62.25;92567.91;2071255;69;20234;-75
2024/03/15 06:13:19;;;;;;;7.47;4.30;;;;;;;7.41;62.26;92578.97;2071238;69;20739;-74
2024/03/15 06:15:45;;;;;;;7.18;3.92;;;;;;;7.46;62.53;92566.72;2071329;69;20236;-74
2024/03/15 06:18:10;;;;;;;8.18;2.95;;;;;;;7.48;63.10;92575.25;2071238;69;20180;-74
2024/03/15 06:20:36;;;;;;;9.18;4.25;;;;;;;7.06;64.33;92584.94;2071425;69;20626;-74
2024/03/15 06:23:02;;;;;;;14.85;7.82;;;;;;;7.41;63.84;92588.09;2070925;69;20144;-75
2024/03/15 06:25:29;;;;;;;14.18;6.70;;;;;;;7.62;63.31;92590.25;2067824;69;20180;-75
2024/03/15 06:27:55;;;;;;;11.23;6.40;;;;;;;7.67;63.02;92596.88;2071249;69;20179;-75
2024/03/15 06:30:21;;;;;;;9.48;5.70;;;;;;;7.68;62.75;92596.28;2071277;69;20209;-75
2024/03/15 06:32:46;;;;;;;9.00;5.65;;;;;;;7.27;64.47;92604.63;2067845;69;20156;-74
2024/03/15 06:35:27;;;;;;;9.50;6.10;;;;;;;7.57;63.61;92605.31;2065194;69;20493;-74
2024/03/15 06:37:56;;;;;;;10.93;6.32;;;;;;;7.68;63.20;92601.88;2071424;69;20146;-75
2024/03/15 06:40:41;;;;;;;10.88;4.45;;;;;;;7.95;62.31;92610.03;2071193;69;20168;-74
2024/03/15 06:49:43;;;;;;;3.78;2.63;;;;;;;8.44;61.67;92621.78;2071603;69;20167;-74
2024/03/15 06:54:49;;;;;;;5.68;3.25;;;;;;;8.88;60.19;92615.56;2071788;69;20141;-75
2024/03/15 06:57:15;;;;;;;6.60;2.97;;;;;;;8.84;60.87;92612.53;2071146;69;20149;-74
2024/03/15 06:59:42;;;;;;;8.13;4.13;;;;;;;8.90;61.33;92610.09;2071412;69;20140;-74
2024/03/15 07:02:08;;;;;;;14.30;6.47;;;;;;;9.02;60.89;92617.84;2071347;69;20137;-74
2024/03/15 07:04:33;;;;;;;21.58;10.85;;;;;;;8.80;61.19;92623.50;2071553;69;20703;-74
2024/03/15 07:07:00;;;;;;;12.20;6.28;;;;;;;8.74;62.22;92617.47;2072009;69;20593;-76
2024/03/15 07:09:25;;;;;;;14.30;5.38;;;;;;;8.64;62.34;92619.59;2072014;69;20232;-76
2024/03/15 07:11:51;;;;;;;11.82;5.50;;;;;;;8.88;62.12;92626.06;2071801;69;20675;-75
2024/03/15 07:14:17;;;;;;;9.45;5.75;;;;;;;8.91;62.47;92625.63;2072011;69;20144;-76
2024/03/15 07:16:43;;;;;;;10.07;5.88;;;;;;;9.23;60.67;92615.00;2071886;69;20167;-76
2024/03/15 07:19:09;;;;;;;7.22;4.40;;;;;;;9.35;61.49;92629.13;2072080;69;20148;-77
2024/03/15 07:21:37;;;;;;;9.57;5.25;;;;;;;9.47;60.40;92624.25;2071986;69;20244;-77
2024/03/15 07:24:06;;;;;;;10.23;6.38;;;;;;;9.55;59.91;92621.97;2072031;69;20275;-76
2024/03/15 07:26:31;;;;;;;11.82;6.72;;;;;;;9.45;60.43;92609.34;2071975;69;20152;-76
2024/03/15 07:28:57;;;;;;;17.83;6.70;;;;;;;9.67;59.56;92625.53;2068642;69;20225;-76
2024/03/15 07:31:23;;;;;;;13.23;6.70;;;;;;;9.68;59.15;92626.28;2071693;69;20218;-77
2024/03/15 07:33:49;;;;;;;12.52;6.47;;;;;;;9.67;58.96;92625.53;2071798;69;20209;-77
2024/03/15 07:36:14;;;;;;;12.48;6.50;;;;;;;9.57;59.20;92629.78;2071921;69;20164;-76
2024/03/15 07:38:41;;;;;;;16.58;6.93;;;;;;;9.70;59.18;92629.19;2068656;69;20147;-77
2024/03/15 07:41:12;;;;;;;9.77;4.90;;;;;;;9.48;58.68;92624.97;2071851;69;20259;-75
2024/03/15 07:43:38;;;;;;;13.70;5.30;;;;;;;9.74;57.76;92631.53;2071937;69;20903;-77
2024/03/15 07:46:05;;;;;;;6.22;4.10;;;;;;;9.83;56.85;92620.19;2071684;69;20167;-76
2024/03/15 07:48:31;;;;;;;9.13;4.20;;;;;;;9.80;56.07;92629.81;2071775;69;20224;-76
2024/03/15 07:50:57;;;;;;;7.78;4.00;;;;;;;9.64;57.12;92609.16;2068580;69;20222;-76
2024/03/15 07:53:22;;;;;;;9.57;4.22;;;;;;;9.86;56.66;92618.97;2071958;69;20140;-76
2024/03/15 07:55:50;;;;;;;7.50;3.70;;;;;;;9.74;57.17;92628.72;2071896;69;20218;-75
2024/03/15 07:58:16;;;;;;;10.35;3.63;;;;;;;9.68;58.03;92621.38;2071897;69;20144;-77
2024/03/15 08:00:44;;;;;;;7.35;3.60;;;;;;;9.98;57.83;92612.63;2071925;69;20174;-76
2024/03/15 08:03:13;;;;;;;8.93;4.55;;;;;;;9.83;57.94;92613.84;2071814;69;20607;-79
2024/03/15 08:05:38;;;;;;;8.32;4.15;;;;;;;9.78;58.20;92615.66;2071901;69;20139;-76
2024/03/15 08:08:05;;;;;;;9.68;3.90;;;;;;;9.59;58.40;92618.69;2072056;69;20503;-77
2024/03/15 08:10:31;;;;;;;9.57;4.00;;;;;;;10.16;57.23;92616.56;2071631;69;20156;-78
2024/03/15 08:12:57;;;;;;;10.15;4.25;;;;;;;10.32;56.90;92603.50;2071908;69;20212;-77
2024/03/15 08:15:23;;;;;;;8.02;3.88;;;;;;;10.36;56.91;92609.38;2071781;69;20168;-77
2024/03/15 08:17:50;;;;;;;7.30;4.40;;;;;;;10.54;56.36;92614.63;2071728;69;20532;-76
2024/03/15 08:20:16;;;;;;;10.00;4.30;;;;;;;10.32;55.92;92620.38;2071877;69;20230;-77
2024/03/15 08:22:42;;;;;;;6.70;4.18;;;;;;;10.43;56.88;92613.28;2071891;69;20231;-77
2024/03/15 08:25:09;;;;;;;6.93;4.10;;;;;;;10.59;57.60;92607.88;2071847;69;20141;-78
2024/03/15 08:27:37;;;;;;;6.30;3.80;;;;;;;10.83;57.00;92611.41;2071553;69;20142;-76
2024/03/15 08:30:04;;;;;;;6.57;4.20;;;;;;;11.10;55.33;92608.03;2071790;69;20266;-78
2024/03/15 08:32:30;;;;;;;6.50;4.05;;;;;;;11.32;54.95;92612.09;2071693;69;20213;-77
2024/03/15 08:34:57;;;;;;;11.40;3.85;;;;;;;11.65;54.71;92600.56;2071851;69;20346;-79
2024/03/15 08:37:24;;;;;;;8.80;4.00;;;;;;;12.28;53.77;92605.31;2071967;69;20144;-77
2024/03/15 08:39:50;;;;;;;6.40;4.20;;;;;;;12.67;53.60;92591.13;2071743;69;20160;-77
2024/03/15 08:42:16;;;;;;;14.00;5.88;;;;;;;12.74;52.04;92607.03;2071939;69;20143;-76
2024/03/15 08:44:42;;;;;;;8.00;3.88;;;;;;;12.61;51.34;92590.81;2065621;69;20156;-76
2024/03/15 08:47:07;;;;;;;7.13;3.92;;;;;;;12.66;50.57;92596.03;2071575;69;20152;-76
2024/03/15 08:49:33;;;;;;;4.47;2.75;;;;;;;12.27;50.14;92598.22;2071827;69;20191;-77
2024/03/15 08:51:59;;;;;;;6.95;3.30;;;;;;;12.52;50.00;92597.41;2071796;69;20604;-78
2024/03/15 08:54:24;;;;;;;6.65;2.92;;;;;;;12.89;50.20;92597.91;2071802;69;20145;-77
2024/03/15 08:56:50;;;;;;;4.25;2.50;;;;;;;12.73;50.58;92585.78;2071773;69;20156;-77
2024/03/15 08:59:19;;;;;;;4.63;2.50;;;;;;;12.43;50.83;92591.34;2068736;69;20141;-77
2024/03/15 09:01:44;;;;;;;5.00;2.30;;;;;;;12.58;50.56;92583.59;2068189;69;20136;-77
2024/03/15 09:04:11;;;;;;;4.55;2.80;;;;;;;12.34;50.26;92585.88;2071608;69;20531;-77
2024/03/15 09:06:37;;;;;;;6.72;2.50;;;;;;;12.48;51.03;92583.06;2071630;69;20585;-77
2024/03/15 09:09:11;;;;;;;8.10;3.08;;;;;;;13.02;50.70;92570.28;2071645;69;20148;-77
2024/03/15 09:11:37;;;;;;;4.55;1.98;;;;;;;12.82;49.60;92576.34;2062999;69;20592;-76
2024/03/15 09:14:03;;;;;;;6.60;2.40;;;;;;;13.50;49.51;92571.94;2071737;69;20265;-75
2024/03/15 09:16:30;;;;;;;8.07;2.53;;;;;;;13.85;48.88;92576.41;2071728;69;20144;-76
2024/03/15 09:18:59;;;;;;;3.28;2.30;;;;;;;14.25;48.05;92571.88;2071671;69;20240;-77
2024/03/15 09:21:25;;;;;;;4.63;2.33;;;;;;;15.09;47.78;92579.09;2071824;69;20214;-77
2024/03/15 09:23:50;;;;;;;5.55;1.63;;;;;;;14.82;46.32;92571.56;2071798;69;20155;-76
2024/03/15 09:26:16;;;;;;;2.47;1.70;;;;;;;14.96;45.87;92574.25;2071810;69;20524;-76
2024/03/15 09:28:43;;;;;;;4.95;1.80;;;;;;;15.10;45.18;92574.13;2071708;69;20665;-76
2024/03/15 09:31:10;;;;;;;2.95;1.70;;;;;;;15.81;45.55;92570.66;2071700;69;20152;-77
2024/03/15 09:33:36;;;;;;;2.35;1.65;;;;;;;16.09;45.59;92571.75;2071652;69;20147;-78
2024/03/15 09:36:05;;;;;;;2.90;1.88;;;;;;;15.82;43.03;92570.00;2068345;69;20189;-81
2024/03/15 09:38:32;;;;;;;5.45;1.80;;;;;;;15.95;44.52;92562.69;2071716;69;20143;-82
2024/03/15 09:40:58;;;;;;;3.85;1.42;;;;;;;16.29;42.64;92557.59;2071638;69;20530;-78
2024/03/15 09:43:29;;;;;;;2.55;1.80;;;;;;;16.84;42.77;92568.13;2071320;69;20180;-79
2024/03/15 09:45:56;;;;;;;3.45;1.63;;;;;;;17.60;41.76;92565.75;2071840;69;20143;-80
2024/03/15 09:48:24;;;;;;;3.28;1.63;;;;;;;18.02;40.80;92562.81;2071643;69;20244;-80
2024/03/15 09:50:52;;;;;;;2.15;1.60;;;;;;;18.72;41.02;92568.47;2071701;69;20250;-79
2024/03/15 09:53:19;;;;;;;4.10;1.90;;;;;;;18.99;40.95;92562.13;2071611;69;20202;-77
2024/03/15 09:55:56;;;;;;;2.95;1.88;;;;;;;19.13;39.45;92553.22;2071637;69;20206;-78
2024/03/15 09:58:23;;;;;;;4.28;1.67;;;;;;;19.06;37.50;92554.47;2071388;69;20224;-78
2024/03/15 10:00:49;;;;;;;2.22;1.60;;;;;;;19.65;38.64;92541.00;2071766;69;20168;-79
2024/03/15 10:03:15;;;;;;;2.08;1.65;;;;;;;19.90;38.41;92543.03;2071453;69;20209;-79
2024/03/15 10:05:41;;;;;;;2.40;1.50;;;;;;;19.82;36.14;92547.84;2071662;69;20160;-79
2024/03/15 10:08:07;;;;;;;3.05;1.83;;;;;;;19.79;37.23;92542.09;2071793;69;20148;-81
2024/03/15 10:10:34;;;;;;;2.00;1.33;;;;;;;19.34;35.92;92539.50;2071738;69;20596;-81
2024/03/15 10:13:00;;;;;;;2.65;2.08;;;;;;;19.32;36.09;92536.56;2071639;69;20129;-81
2024/03/15 10:15:26;;;;;;;6.20;2.50;;;;;;;19.37;36.79;92523.84;2071834;69;20174;-82
2024/03/15 10:17:54;;;;;;;10.20;6.00;;;;;;;20.48;36.22;92536.50;2071574;69;20262;-82
2024/03/15 10:20:22;;;;;;;5.38;1.40;;;;;;;18.89;37.83;92529.75;2071600;69;20160;-83
2024/03/15 10:22:58;;;;;;;2.28;1.40;;;;;;;19.34;38.99;92520.22;2071520;69;20160;-81
2024/03/15 10:25:25;;;;;;;5.43;1.48;;;;;;;20.02;38.45;92506.19;2068420;69;20163;-81
2024/03/15 10:27:55;;;;;;;3.28;1.58;;;;;;;21.38;37.58;92523.97;2071598;69;20147;-82
2024/03/15 10:30:22;;;;;;;3.58;1.50;;;;;;;21.15;36.29;92514.94;2071865;69;20648;-80
2024/03/15 10:32:53;;;;;;;5.90;1.50;;;;;;;18.82;37.83;92516.69;2071447;69;20128;-81
2024/03/15 10:35:20;;;;;;;2.85;1.55;;;;;;;19.02;38.36;92508.72;2071583;69;20152;-80
2024/03/15 10:37:47;;;;;;;3.33;1.50;;;;;;;20.14;38.24;92514.31;2068328;69;20144;-79
2024/03/15 10:40:16;;;;;;;4.47;1.30;;;;;;;20.28;37.40;92511.75;2071738;69;20156;-79
2024/03/15 10:42:43;;;;;;;2.45;1.40;;;;;;;20.73;36.71;92514.84;2068534;69;20511;-79
2024/03/15 10:45:12;;;;;;;3.90;1.23;;;;;;;20.17;36.45;92515.81;2068413;69;20627;-80
2024/03/15 10:47:42;;;;;;;4.28;1.38;;;;;;;19.73;37.33;92524.78;2071699;69;20160;-80
2024/03/15 10:50:13;;;;;;;2.10;1.15;;;;;;;18.02;38.26;92520.81;2071855;69;20136;-80
2024/03/15 10:52:41;;;;;;;1.92;1.20;;;;;;;18.81;37.79;92533.09;2068470;69;20276;-79
2024/03/15 10:55:27;;;;;;;2.20;1.17;;;;;;;18.68;38.26;92536.97;2068355;69;20224;-78
2024/03/15 10:57:59;;;;;;;2.50;1.40;;;;;;;18.28;39.85;92538.00;2071926;69;20567;-79
2024/03/15 11:00:28;;;;;;;7.37;1.47;;;;;;;18.68;39.03;92537.69;2071946;69;20231;-79
2024/03/15 11:02:55;;;;;;;3.40;1.15;;;;;;;17.74;39.16;92534.19;2068452;69;20252;-79
2024/03/15 11:05:29;;;;;;;4.18;1.27;;;;;;;16.75;39.72;92535.84;2071817;69;20218;-79
2024/03/15 11:08:08;;;;;;;3.95;1.40;;;;;;;17.21;39.44;92536.00;2071815;69;20133;-80
2024/03/15 11:10:37;;;;;;;3.33;1.05;;;;;;;17.94;39.70;92545.47;2071725;69;20167;-79
2024/03/15 11:13:03;;;;;;;6.95;1.50;;;;;;;17.59;39.03;92538.66;2071736;69;20631;-79
2024/03/15 11:15:33;;;;;;;5.18;1.20;;;;;;;18.39;38.94;92539.00;2071663;69;20144;-78
2024/03/15 11:18:11;;;;;;;8.27;1.40;;;;;;;18.06;37.50;92528.78;2068255;69;20140;-79
2024/03/15 11:20:46;;;;;;;4.32;1.50;;;;;;;17.31;38.90;92544.13;2071712;69;20155;-79
2024/03/15 11:23:20;;;;;;;2.55;1.20;;;;;;;18.20;38.44;92537.75;2071888;69;20672;-78
2024/03/15 11:25:55;;;;;;;3.10;1.10;;;;;;;18.67;37.17;92541.22;2071843;69;20147;-79
2024/03/15 11:28:22;;;;;;;5.28;1.40;;;;;;;17.57;39.02;92532.91;2071865;69;20141;-79
2024/03/15 11:30:49;;;;;;;5.10;1.40;;;;;;;17.75;39.65;92532.78;2071805;69;20159;-79
2024/03/15 11:33:15;;;;;;;1.52;1.30;;;;;;;16.74;40.88;92542.94;2071599;69;20164;-80
2024/03/15 11:35:43;;;;;;;2.35;1.25;;;;;;;16.65;40.49;92535.47;2068602;69;20132;-83
2024/03/15 11:38:13;;;;;;;2.97;1.30;;;;;;;16.92;39.76;92540.00;2072053;69;20144;-80
2024/03/15 11:40:41;;;;;;;2.97;1.30;;;;;;;16.26;40.95;92514.19;2068398;69;20598;-81
2024/03/15 11:43:08;;;;;;;4.47;1.52;;;;;;;15.98;42.58;92528.03;2071781;69;20160;-80
2024/03/15 11:45:37;;;;;;;4.53;1.45;;;;;;;15.86;42.90;92536.09;2068344;69;20144;-81
2024/03/15 11:48:17;;;;;;;5.05;1.52;;;;;;;16.36;43.29;92533.72;2071728;69;20145;-80
2024/03/15 11:50:44;;;;;;;2.70;1.42;;;;;;;16.79;42.62;92540.22;2071840;69;20235;-79
2024/03/15 11:53:12;;;;;;;2.80;1.40;;;;;;;16.48;42.76;92551.19;2068639;69;20144;-81
2024/03/15 11:55:40;;;;;;;5.35;1.60;;;;;;;16.90;42.46;92534.22;2071799;69;20155;-80
2024/03/15 11:58:14;;;;;;;6.82;1.58;;;;;;;16.81;42.92;92548.81;2071864;69;20141;-79
2024/03/15 12:00:45;;;;;;;2.53;1.30;;;;;;;16.58;42.97;92539.47;2073848;69;20148;-78
2024/03/15 12:03:11;;;;;;;8.93;1.95;;;;;;;16.38;43.02;92550.84;2071901;69;20237;-80
2024/03/15 12:05:42;;;;;;;4.90;1.77;;;;;;;16.49;43.33;92549.09;2072055;69;20344;-82